Latest Weather Observations for Thredbo Top Station

IDN60801

Issued at 2:05 pm EST Saturday 30 August 2014 (issued every 30 minutes, with the page automatically refreshed every 10 minutes)

About weather observations | Map of weather stations | Latest weather observations for NSW | Other Formats
Station Details ID: 071032 Name: THREDBO AWS Lat: -36.49 Lon: 148.29 Height: 1957.0 m
Data from the previous 72 hours. | See also: Recent months at Thredbo Top Station
Date/Time
EST
Temp
°C
App
Temp
°C
Dew
Point
Rel
Hum
%
Delta-T
°C
Wind Press
QNH
hPa
Press
MSL
hPa
Rain
since 9 am
mm
Dir
 
Spd
km/h
Gust
km/h
Spd
kts
Gust
kts
30/02:00pm 4.9 0.9 -5.7 46 3.8 SW 7 11 4 6 1023.5 1028.3 0.0
30/01:30pm 4.8 0.9 -6.4 44 4.0 SSW 6 9 3 5 1023.7 - 0.0
30/01:00pm 3.5 -1.4 -7.6 44 3.9 WNW 11 11 6 6 1024.2 1029.0 0.0
30/12:30pm 3.8 -0.5 -11.7 31 5.0 WNW 6 7 3 4 1024.6 - 0.0
30/12:00pm 4.7 0.4 -17.6 18 6.2 WNW 4 6 2 3 1025.2 1030.1 0.0
30/11:30am 4.4 -0.1 -14.9 23 5.8 NNW 6 7 3 4 1025.6 - 0.0
30/11:00am 2.7 -2.2 -11.9 33 4.5 NNW 9 11 5 6 1026.0 1030.9 0.0
30/10:30am 3.7 -0.7 -13.1 28 5.2 N 6 11 3 6 1026.2 - 0.0
30/10:00am 3.0 -2.1 -15.1 25 5.2 N 9 11 5 6 1026.4 1031.4 0.0
30/09:30am 3.3 -1.5 -20.8 15 6.0 N 6 11 3 6 1026.7 - 0.0
30/09:00am 2.8 -1.5 -19.8 17 5.7 N 4 9 2 5 1026.8 1031.8 0.0
30/08:30am 1.3 -3.5 -22.4 15 5.4 NW 6 9 3 5 1027.0 - 0.0
30/08:00am 0.1 -4.4 -23.4 15 5.0 NW 4 9 2 5 1027.1 1032.1 0.0
30/07:30am 0.7 -3.8 -23.7 14 5.3 NNW 4 13 2 7 1027.1 - 0.0
30/07:00am 0.9 -4.0 -24.4 13 5.4 NE 6 11 3 6 1027.0 1032.0 0.0
30/06:30am 0.3 -5.2 -25.7 12 5.3 ENE 9 19 5 10 1026.8 - 0.0
30/06:00am -0.8 -5.3 -23.4 16 4.7 N 4 9 2 5 1026.7 1031.6 0.0
30/05:30am 0.5 -5.2 -21.0 18 5.0 ENE 11 19 6 10 1026.6 - 0.0
30/05:00am 0.1 -5.5 -18.5 23 4.5 E 11 22 6 12 1026.4 1031.4 0.0
30/04:30am -0.4 -5.7 -19.0 23 4.4 ENE 9 22 5 12 1026.7 - 0.0
30/04:00am -0.6 -6.0 -14.8 33 3.7 E 11 19 6 10 1026.7 1031.6 0.0
30/03:30am -1.2 -5.9 -15.0 34 3.6 NE 7 15 4 8 1026.8 - 0.0
30/03:00am -2.4 -5.6 -6.7 72 1.3 N 2 7 1 4 1026.8 1031.8 0.0
30/02:30am -2.1 -6.5 -5.4 78 1.0 E 9 13 5 7 1026.8 - 0.0
30/02:00am -1.5 -6.3 -6.2 70 1.5 E 11 19 6 10 1026.8 1031.8 0.0
30/01:30am -0.6 -5.9 -7.0 62 2.1 ESE 13 19 7 10 1026.9 - 0.0
30/01:00am -1.2 -6.7 -5.0 75 1.2 E 15 22 8 12 1027.0 1032.0 0.0
30/12:30am -1.4 -5.6 -3.9 83 0.8 E 9 15 5 8 1027.1 - 0.0
30/12:00am -1.4 -4.7 -1.5 99 0.0 ENE 6 9 3 5 1027.2 1032.2 0.0
 
Date/Time
EST
Temp
°C
App
Temp
°C
Dew
Point
Rel
Hum
%
Delta-T
°C
Wind Press
QNH
hPa
Press
MSL
hPa
Rain
since 9 am
mm
Dir
 
Spd
km/h
Gust
km/h
Spd
kts
Gust
kts
29/11:30pm -1.1 -4.6 -1.2 99 0.0 ENE 7 13 4 7 1027.2 - 0.0
29/11:00pm -0.7 -4.9 -0.8 99 0.0 E 11 15 6 8 1027.2 1032.2 0.0
29/10:30pm -0.4 -4.2 -0.5 99 0.0 E 9 13 5 7 1027.6 - 0.0
29/10:00pm 0.0 -4.1 -0.1 99 0.0 E 11 17 6 9 1027.7 1032.7 0.0
29/09:30pm -0.3 -3.7 -0.6 98 0.1 E 7 13 4 7 1027.7 - 0.0
29/09:00pm 1.2 -3.0 -0.9 86 0.8 ESE 11 15 6 8 1027.6 1032.6 0.0
29/08:30pm 1.9 -2.8 -2.1 75 1.5 ESE 13 20 7 11 1027.6 - 0.0
29/08:00pm 0.3 -2.9 -0.3 96 0.2 E 6 7 3 4 1027.6 1032.6 0.0
29/07:30pm 0.7 -2.6 -0.2 94 0.4 E 7 17 4 9 1027.6 - 0.0
29/07:00pm 1.1 -2.5 0.4 95 0.3 ESE 9 17 5 9 1027.6 1032.6 0.0
29/06:30pm 1.2 -2.0 0.5 95 0.3 E 7 19 4 10 1027.5 - 0.0
29/06:00pm 0.8 -2.2 -1.8 83 1.0 NE 4 9 2 5 1027.1 1032.1 0.0
29/05:30pm 1.8 -1.7 -3.1 70 1.9 SE 6 9 3 5 1026.7 - 0.0
29/05:00pm 2.3 -1.5 -5.8 55 2.9 SSE 6 9 3 5 1026.4 1031.4 0.0
29/04:30pm 3.2 -1.9 -9.1 40 4.2 ESE 11 15 6 8 1026.3 - 0.0
29/04:00pm 3.7 -1.0 -9.6 37 4.5 SE 9 15 5 8 1026.2 1031.2 0.0
29/03:30pm 3.7 -1.8 -10.3 35 4.7 SE 13 17 7 9 1026.1 - 0.0
29/03:00pm 4.3 -0.9 -10.5 33 4.9 SE 11 19 6 10 1026.1 1031.1 0.0
29/02:30pm 4.1 -1.9 -11.5 31 5.1 SE 15 20 8 11 1026.3 - 0.0
29/02:00pm 4.7 -1.0 -12.2 28 5.4 ESE 13 20 7 11 1026.4 1031.4 0.0
29/01:30pm 5.0 0.1 -11.5 29 5.5 ESE 9 19 5 10 1026.6 - 0.0
29/01:00pm 4.7 -0.3 -13.6 25 5.7 ESE 9 20 5 11 1026.7 1031.6 0.0
29/12:30pm 4.1 -1.6 -12.7 28 5.3 SSE 13 19 7 10 1026.9 - 0.0
29/12:00pm 4.6 -0.3 -11.9 29 5.3 SE 9 17 5 9 1027.2 1032.2 0.0
29/11:30am 4.6 -0.4 -12.8 27 5.5 SE 9 17 5 9 1027.4 - 0.0
29/11:00am 4.8 -0.3 -15.1 22 5.9 SE 9 15 5 8 1027.5 1032.5 0.0
29/10:30am 4.3 -0.4 -14.4 24 5.6 SE 7 11 4 6 1027.4 - 0.0
29/10:00am 4.8 0.2 -17.5 18 6.2 E 6 13 3 7 1027.6 1032.6 0.0
29/09:30am 3.9 -0.2 -14.3 25 5.5 ESE 4 7 2 4 1027.8 - 0.0
29/09:00am 3.1 -1.1 -16.0 23 5.3 SE 4 7 2 4 1028.2 1033.2 0.0
29/08:30am 2.3 -2.5 -16.7 23 5.2 SSE 7 15 4 8 1028.3 - 0.0
29/08:00am 1.4 -3.4 -16.4 25 4.7 SSE 7 13 4 7 1028.4 1033.4 0.0
29/07:30am 0.7 -4.0 -14.9 30 4.3 S 7 19 4 10 1028.3 - 0.0
29/07:00am 0.2 -5.3 -15.3 30 4.1 SSE 11 19 6 10 1028.0 1033.1 0.0
29/06:30am 0.4 -6.8 -16.4 27 4.4 S 20 26 11 14 1027.6 - 0.0
29/06:00am 0.5 -6.2 -16.3 27 4.4 S 17 24 9 13 1027.4 1032.4 0.0
29/05:30am 0.6 -7.0 -16.7 26 4.5 S 22 32 12 17 1027.2 - 0.0
29/05:00am 1.0 -7.0 -17.3 24 4.7 S 24 30 13 16 1027.1 1032.1 0.0
29/04:30am 1.1 -6.1 -16.2 26 4.6 S 20 30 11 16 1027.1 - 0.0
29/04:00am 1.1 -6.5 -15.8 27 4.5 S 22 32 12 17 1027.0 1032.0 0.0
29/03:30am 1.2 -6.0 -16.1 26 4.7 S 20 26 11 14 1027.0 - 0.0
29/03:00am 1.3 -5.9 -16.1 26 4.7 SSE 20 28 11 15 1027.1 1032.1 0.0
29/02:30am 1.8 -5.8 -15.6 26 4.8 S 22 30 12 16 1027.2 - 0.0
29/02:00am 1.5 -6.4 -15.0 28 4.6 S 24 32 13 17 1027.6 1032.6 0.0
29/01:30am 1.1 -6.4 -13.7 32 4.2 S 22 28 12 15 1027.8 - 0.0
29/01:00am 1.1 -6.0 -13.3 33 4.1 S 20 26 11 14 1028.0 1033.1 0.0
29/12:30am 0.9 -6.2 -13.5 33 4.1 S 20 26 11 14 1028.3 - 0.0
29/12:00am 0.8 -5.7 -12.9 35 3.9 S 17 24 9 13 1028.4 1033.4 0.0
 
Date/Time
EST
Temp
°C
App
Temp
°C
Dew
Point
Rel
Hum
%
Delta-T
°C
Wind Press
QNH
hPa
Press
MSL
hPa
Rain
since 9 am
mm
Dir
 
Spd
km/h
Gust
km/h
Spd
kts
Gust
kts
28/11:30pm 1.0 -5.8 -12.7 35 4.0 S 19 24 10 13 1028.4 - 0.0
28/11:00pm 1.2 -5.8 -12.2 36 4.0 S 20 28 11 15 1028.4 1033.4 0.0
28/10:30pm 0.3 -6.3 -6.8 59 2.4 SSW 20 26 11 14 1028.5 - 0.0
28/10:00pm 0.7 -5.9 -7.3 55 2.7 SSW 20 24 11 13 1028.6 1033.7 0.0
28/09:30pm 0.8 -5.7 -5.8 61 2.3 SSW 20 24 11 13 1028.6 - 0.0
28/09:00pm 0.7 -5.7 -4.9 66 2.0 SSW 20 24 11 13 1028.7 1033.8 0.0
28/08:30pm 0.9 -6.2 -4.1 69 1.9 SSW 24 26 13 14 1028.6 - 0.0
28/08:00pm 1.5 -5.1 -3.2 71 1.8 SSW 22 24 12 13 1028.5 1033.5 0.0
28/07:30pm 0.7 -5.1 -4.3 69 1.8 SSW 17 19 9 10 1028.4 - 0.0
28/07:00pm 0.6 -4.4 -4.4 69 1.8 S 13 15 7 8 1028.4 1033.4 0.0
28/06:30pm 0.8 -3.4 -3.5 73 1.6 S 9 11 5 6 1028.2 - 0.0
28/06:00pm 0.4 -2.5 -4.0 72 1.6 S 2 4 1 2 1028.0 1033.1 0.0
28/05:30pm 1.5 -2.3 -4.1 66 2.1 SSE 7 11 4 6 1027.6 - 0.0
28/05:00pm 3.0 -0.9 -4.4 58 2.7 S 7 9 4 5 1027.2 1032.2 0.0
28/04:30pm 4.0 0.6 -5.7 49 3.5 SE 4 7 2 4 1027.0 - 0.0
28/04:00pm 3.4 -0.6 -5.5 52 3.2 SSE 7 11 4 6 1026.8 1031.8 0.0
28/03:30pm 3.9 -1.6 -10.1 35 4.7 SE 13 19 7 10 1026.8 - 0.0
28/03:00pm 4.3 0.3 -6.0 47 3.6 SE 7 9 4 5 1026.8 1031.8 0.0
28/02:30pm 4.5 0.6 -7.0 43 4.0 SSW 6 9 3 5 1026.7 - 0.0
28/02:00pm 4.3 0.5 -5.5 49 3.5 WNW 6 7 3 4 1026.7 1031.6 0.0
28/01:30pm 4.9 1.3 -7.2 41 4.2 W 4 7 2 4 1027.0 - 0.0
28/01:00pm 4.7 0.6 -8.4 38 4.4 N 6 11 3 6 1027.1 1032.1 0.0
28/12:30pm 4.1 0.2 -10.7 33 4.9 NE 4 7 2 4 1027.5 - 0.0
28/12:00pm 2.8 -1.3 -8.2 44 3.8 W 6 9 3 5 1027.8 1032.8 0.0
28/11:30am 2.8 -1.6 -9.8 39 4.2 N 7 11 4 6 1028.2 - 0.0
28/11:00am 1.8 -2.6 -10.0 41 3.8 NNW 7 9 4 5 1028.5 1033.5 0.0
28/10:30am 1.3 -3.7 -12.8 34 4.1 NNW 9 11 5 6 1028.6 - 0.0
28/10:00am 1.4 -3.3 -14.2 30 4.4 N 7 11 4 6 1028.6 1033.7 0.0
28/09:30am 0.0 -5.0 -13.6 35 3.8 NNW 9 11 5 6 1028.8 - 0.0
28/09:00am -0.3 -5.4 -15.7 30 4.0 NNW 9 13 5 7 1029.0 1034.0 0.0
28/08:30am -0.7 -5.4 -18.7 24 4.3 NW 6 13 3 7 1029.0 - 0.0
28/08:00am -0.1 -4.9 -22.8 16 4.9 NW 6 7 3 4 1028.8 1033.9 0.0
28/07:30am -1.5 -6.4 -20.4 22 4.2 WNW 7 11 4 6 1029.0 - 0.0
28/07:00am -2.4 -6.8 -20.7 23 3.9 NNW 4 9 2 5 1028.7 1033.8 0.0
28/06:30am -2.5 -6.9 -20.2 24 3.9 WNW 4 7 2 4 1028.4 - 0.0
28/06:00am -3.3 -8.0 -20.5 25 3.6 WNW 6 11 3 6 1028.2 1033.2 0.0
28/05:30am -1.8 -6.2 -22.9 18 4.4 NW 4 9 2 5 1028.0 - 0.0
28/05:00am -4.0 -9.3 -20.6 26 3.4 W 9 13 5 7 1027.9 1032.9 0.0
28/04:30am -2.7 -7.6 -20.9 23 3.9 W 7 11 4 6 1027.7 - 0.0
28/04:00am -2.6 -7.9 -20.8 23 3.9 W 9 11 5 6 1027.5 1032.5 0.0
28/03:30am -2.5 -7.8 -20.2 24 3.9 W 9 11 5 6 1027.5 - 0.0
28/03:00am -2.4 -7.7 -20.2 24 3.9 W 9 11 5 6 1027.5 1032.5 0.0
28/02:30am -0.4 -5.4 -22.4 17 4.8 W 7 11 4 6 1027.7 - 0.0
28/02:00am -2.4 -7.7 -19.2 26 3.7 WNW 9 13 5 7 1027.8 1032.8 0.0
28/01:30am -4.1 -9.4 -12.5 52 2.1 WNW 11 13 6 7 1028.0 - 0.0
28/01:00am -3.9 -8.3 -10.3 61 1.7 WNW 7 11 4 6 1028.3 1033.3 0.0
28/12:30am -5.1 -9.6 -6.8 88 0.3 NW 9 15 5 8 1028.3 - 0.0
28/12:00am -4.6 -8.1 -6.7 85 0.5 N 4 9 2 5 1028.3 1033.3 0.0
 
Date/Time
EST
Temp
°C
App
Temp
°C
Dew
Point
Rel
Hum
%
Delta-T
°C
Wind Press
QNH
hPa
Press
MSL
hPa
Rain
since 9 am
mm
Dir
 
Spd
km/h
Gust
km/h
Spd
kts
Gust
kts
27/11:30pm -4.0 -9.0 -4.3 98 -0.1 WNW 13 22 7 12 1028.4 - 0.0
27/11:00pm -4.1 -9.9 -4.2 99 -0.1 NW 17 20 9 11 1028.5 1033.5 0.0
27/10:30pm -4.3 -10.1 -4.4 99 -0.2 NW 17 20 9 11 1028.4 - 0.0
27/10:00pm -4.3 -7.8 -6.1 87 0.4 N 4 9 2 5 1028.5 1033.5 0.0
27/09:30pm -3.2 -7.2 -5.8 82 0.7 NNW 7 13 4 7 1028.4 - 0.0
27/09:00pm -3.2 -7.2 -5.5 84 0.6 NW 7 11 4 6 1028.3 1033.3 0.0
27/08:30pm -3.0 -7.7 -5.2 85 0.6 NW 11 13 6 7 1028.3 - 0.0
27/08:00pm -1.9 -6.4 -3.6 88 0.5 NW 11 13 6 7 1028.3 1033.3 0.0
27/07:30pm -2.2 -7.1 -3.3 92 0.3 NW 13 13 7 7 1028.3 - 0.0
27/07:00pm -1.7 -5.8 -2.8 92 0.3 N 9 13 5 7 1028.0 1033.1 0.0
27/06:30pm -1.3 -5.3 -2.6 91 0.4 N 9 11 5 6 1027.8 - 0.0
27/06:00pm -0.7 -4.7 -2.1 90 0.5 N 9 13 5 7 1027.7 1032.7 0.0
27/05:30pm -0.7 -4.8 -3.1 84 0.8 N 9 13 5 7 1027.4 - 0.0
27/05:00pm 0.0 -4.1 -2.9 81 1.1 N 9 13 5 7 1027.1 1032.1 0.0
27/04:30pm 1.1 -2.4 -2.8 75 1.5 N 6 9 3 5 1026.9 - 0.0
27/04:00pm 1.4 -3.0 -2.4 76 1.5 NNE 11 15 6 8 1026.8 1031.8 0.0
27/03:30pm 2.0 -2.0 -2.3 73 1.6 NNE 9 13 5 7 1026.7 - 0.0
27/03:00pm 2.1 -2.6 -1.9 75 1.5 NNE 13 17 7 9 1026.6 1031.5 0.0
27/02:30pm 2.1 -2.3 -2.4 72 1.7 NNE 11 15 6 8 1026.7 - 0.0

Other Formats:

Comma delimited format used in spreadsheet applications
http://www.bom.gov.au/fwo/IDN60801/IDN60801.95909.axf

JavaScript Object Notation format (JSON) in row-major order
http://www.bom.gov.au/fwo/IDN60801/IDN60801.95909.json